createdAt,value
2022-07-29T00:02:16.730Z,63.32
2022-07-29T00:04:43.257Z,63.99
2022-07-29T00:07:09.766Z,63.94
2022-07-29T00:09:43.023Z,63.77
2022-07-29T00:12:18.056Z,64.61
2022-07-29T00:14:53.501Z,64.36
2022-07-29T00:17:19.921Z,64.17
2022-07-29T00:19:46.577Z,64.56
2022-07-29T00:22:12.973Z,64.23
2022-07-29T00:24:39.378Z,64.47
2022-07-29T00:27:05.911Z,64.76
2022-07-29T00:29:34.010Z,64.86
2022-07-29T00:32:01.449Z,64.81
2022-07-29T00:34:46.536Z,64.50
2022-07-29T00:37:12.928Z,64.60
2022-07-29T00:39:39.333Z,64.77
2022-07-29T00:42:06.327Z,65.34
2022-07-29T00:44:40.639Z,65.32
2022-07-29T00:47:07.783Z,65.34
2022-07-29T00:49:35.034Z,65.74
2022-07-29T00:52:06.018Z,65.18
2022-07-29T00:54:33.758Z,65.64
2022-07-29T00:57:01.455Z,65.86
2022-07-29T00:59:34.383Z,65.57
2022-07-29T01:02:01.577Z,66.11
2022-07-29T01:04:28.089Z,66.38
2022-07-29T01:06:55.420Z,65.93
2022-07-29T01:09:42.818Z,65.85
2022-07-29T01:12:09.588Z,66.23
2022-07-29T01:14:36.698Z,66.08
2022-07-29T01:17:14.109Z,66.42
2022-07-29T01:20:03.554Z,66.66
2022-07-29T01:22:36.274Z,65.79
2022-07-29T01:25:13.496Z,66.06
2022-07-29T01:27:58.865Z,66.72
2022-07-29T01:30:26.564Z,66.43
2022-07-29T01:32:59.819Z,66.34
2022-07-29T01:35:31.709Z,66.26
2022-07-29T01:38:13.480Z,66.32
2022-07-29T01:40:48.857Z,66.56
2022-07-29T01:43:27.287Z,66.89
2022-07-29T01:46:07.681Z,66.31
2022-07-29T01:48:49.673Z,66.68
2022-07-29T01:51:30.087Z,66.95
2022-07-29T01:54:03.380Z,67.28
2022-07-29T01:56:34.609Z,66.69
2022-07-29T01:59:03.748Z,67.00
2022-07-29T02:01:33.514Z,67.69
2022-07-29T02:04:03.465Z,67.77
2022-07-29T02:06:33.171Z,66.36
2022-07-29T02:09:00.402Z,67.68
2022-07-29T02:11:26.853Z,69.17
2022-07-29T02:13:55.651Z,70.34
2022-07-29T02:16:23.798Z,71.37
2022-07-29T02:18:53.375Z,71.01
2022-07-29T02:21:23.911Z,71.28
2022-07-29T02:23:52.075Z,71.38
2022-07-29T02:26:21.211Z,71.91
2022-07-29T02:28:50.540Z,72.32
2022-07-29T02:31:21.720Z,72.72
2022-07-29T02:33:50.569Z,71.82
2022-07-29T02:36:17.764Z,71.95
2022-07-29T02:38:52.463Z,72.21
2022-07-29T02:41:28.422Z,71.80
2022-07-29T02:44:02.985Z,72.71
2022-07-29T02:46:33.907Z,71.92
2022-07-29T02:49:10.709Z,72.64
2022-07-29T02:51:45.681Z,72.41
2022-07-29T02:54:31.902Z,71.62
2022-07-29T02:57:01.844Z,71.31
2022-07-29T02:59:31.680Z,71.72
2022-07-29T03:02:00.525Z,71.09
2022-07-29T03:04:29.397Z,71.45
2022-07-29T03:06:59.632Z,72.57
2022-07-29T03:09:26.888Z,73.54
2022-07-29T03:11:55.357Z,74.21
2022-07-29T03:14:23.926Z,74.49
2022-07-29T03:16:51.959Z,74.05
2022-07-29T03:19:19.251Z,75.65
2022-07-29T03:21:45.657Z,76.00
2022-07-29T03:24:25.488Z,75.64
2022-07-29T03:26:51.908Z,75.86
2022-07-29T03:29:18.305Z,75.69
2022-07-29T03:31:46.383Z,76.16
2022-07-29T03:34:15.192Z,76.46
2022-07-29T03:36:41.797Z,76.74
2022-07-29T03:39:11.413Z,76.34
2022-07-29T03:41:40.120Z,76.59
2022-07-29T03:44:08.487Z,76.47
2022-07-29T03:46:36.484Z,75.94
2022-07-29T03:49:05.147Z,75.77
2022-07-29T03:51:33.916Z,76.43
2022-07-29T03:54:06.399Z,76.52
2022-07-29T03:56:40.505Z,76.37
2022-07-29T03:59:08.363Z,75.51
2022-07-29T04:01:35.180Z,75.79
2022-07-29T04:04:05.665Z,76.30
2022-07-29T04:06:41.978Z,75.46
2022-07-29T04:09:09.829Z,75.02
2022-07-29T04:12:02.688Z,75.75
2022-07-29T04:14:25.583Z,75.79
2022-07-29T04:16:52.024Z,76.08
2022-07-29T04:19:18.426Z,76.02
2022-07-29T04:21:46.105Z,75.79
2022-07-29T04:24:12.819Z,76.25
2022-07-29T04:26:39.490Z,75.81
2022-07-29T04:29:06.025Z,76.33
2022-07-29T04:31:32.492Z,76.42
2022-07-29T04:33:58.922Z,76.07
2022-07-29T04:36:28.931Z,75.76
2022-07-29T04:38:56.272Z,76.26
2022-07-29T04:41:22.679Z,75.53
2022-07-29T04:43:50.053Z,75.54
2022-07-29T04:46:16.624Z,75.79
2022-07-29T04:48:43.134Z,75.54
2022-07-29T04:51:09.654Z,74.64
2022-07-29T04:53:36.120Z,74.77
2022-07-29T04:56:03.097Z,73.89
2022-07-29T04:58:29.486Z,74.41
2022-07-29T05:00:55.980Z,74.69
2022-07-29T05:03:22.397Z,74.13
2022-07-29T05:05:48.796Z,74.75
2022-07-29T05:08:15.302Z,75.06
2022-07-29T05:10:41.721Z,74.60
2022-07-29T05:13:08.670Z,74.36
2022-07-29T05:15:36.283Z,74.49
2022-07-29T05:18:03.432Z,74.58
2022-07-29T05:20:30.519Z,74.91
2022-07-29T05:23:00.600Z,73.71
2022-07-29T05:25:43.585Z,73.95
2022-07-29T05:28:11.387Z,73.69
2022-07-29T05:30:37.925Z,74.38
2022-07-29T05:33:04.494Z,74.44
2022-07-29T05:35:30.937Z,74.31
2022-07-29T05:37:57.334Z,73.59
2022-07-29T05:40:23.847Z,74.27
2022-07-29T05:42:50.240Z,73.79
2022-07-29T05:45:16.638Z,74.29
2022-07-29T05:47:43.157Z,75.16
2022-07-29T05:50:09.758Z,74.37
2022-07-29T05:52:36.199Z,73.38
2022-07-29T05:55:05.248Z,73.81
2022-07-29T05:57:31.967Z,72.92
2022-07-29T05:59:58.561Z,72.56
2022-07-29T06:02:25.193Z,72.93
2022-07-29T06:04:51.905Z,72.56
2022-07-29T06:07:18.456Z,72.77
2022-07-29T06:09:44.862Z,72.41
2022-07-29T06:12:11.322Z,73.06
2022-07-29T06:14:39.118Z,73.52
2022-07-29T06:17:06.589Z,74.11
2022-07-29T06:19:35.444Z,72.11
2022-07-29T06:22:01.853Z,71.57
2022-07-29T06:24:28.373Z,72.36
2022-07-29T06:26:54.832Z,71.98
2022-07-29T06:29:21.242Z,71.91
2022-07-29T06:31:47.646Z,71.97
2022-07-29T06:34:14.499Z,71.31
2022-07-29T06:36:41.817Z,70.58
2022-07-29T06:39:09.049Z,70.11
2022-07-29T06:41:36.494Z,70.60
2022-07-29T06:44:03.217Z,68.94
2022-07-29T06:46:29.823Z,71.24
2022-07-29T06:48:56.372Z,69.21
2022-07-29T06:51:24.118Z,68.73
2022-07-29T06:53:59.397Z,69.61
2022-07-29T06:56:27.977Z,69.55
2022-07-29T06:58:54.420Z,68.99
2022-07-29T07:01:20.949Z,69.81
2022-07-29T07:03:48.215Z,67.12
2022-07-29T07:06:15.209Z,66.19
2022-07-29T07:08:42.003Z,66.71
2022-07-29T07:11:08.446Z,67.61
2022-07-29T07:13:36.747Z,65.28
2022-07-29T07:16:04.241Z,64.89
2022-07-29T07:18:31.030Z,65.63
2022-07-29T07:20:57.861Z,65.88
2022-07-29T07:23:24.752Z,64.68
2022-07-29T07:25:51.249Z,65.57
2022-07-29T07:28:17.877Z,65.92
2022-07-29T07:30:45.921Z,64.61
2022-07-29T07:33:12.389Z,65.16
2022-07-29T07:35:38.771Z,64.43
2022-07-29T07:38:06.828Z,64.50
2022-07-29T07:40:33.415Z,65.00
2022-07-29T07:42:59.817Z,65.19
2022-07-29T07:45:26.405Z,63.27
2022-07-29T07:47:52.825Z,63.02
2022-07-29T07:50:19.493Z,62.25
2022-07-29T07:52:54.621Z,63.00
2022-07-29T07:55:21.341Z,62.63
2022-07-29T07:57:48.147Z,61.00
2022-07-29T08:00:15.733Z,60.65
2022-07-29T08:02:43.910Z,60.88
2022-07-29T08:05:13.015Z,60.17
2022-07-29T08:07:40.220Z,59.15
2022-07-29T08:10:07.028Z,59.93
2022-07-29T08:12:33.499Z,59.07
2022-07-29T08:14:59.992Z,60.37
2022-07-29T08:17:27.530Z,59.35
2022-07-29T08:19:53.977Z,61.03
2022-07-29T08:22:20.666Z,59.01
2022-07-29T08:24:57.131Z,59.17
2022-07-29T08:27:43.055Z,59.97
2022-07-29T08:30:11.125Z,59.26
2022-07-29T08:32:53.238Z,54.93
2022-07-29T08:35:21.856Z,53.10
2022-07-29T08:37:48.434Z,51.13
2022-07-29T08:40:17.775Z,50.70
2022-07-29T08:42:44.492Z,49.96
2022-07-29T08:45:11.255Z,51.47
2022-07-29T08:47:40.696Z,49.96
2022-07-29T08:50:11.185Z,50.58
2022-07-29T08:52:40.525Z,52.58
2022-07-29T08:55:08.933Z,53.15
2022-07-29T08:57:37.246Z,52.38
2022-07-29T09:00:07.937Z,51.44
2022-07-29T09:02:42.568Z,52.57
2022-07-29T09:05:09.490Z,53.31
2022-07-29T09:07:36.210Z,54.47
2022-07-29T09:10:03.290Z,53.88
2022-07-29T09:12:33.687Z,53.47
2022-07-29T09:15:03.949Z,53.81
2022-07-29T09:17:46.597Z,52.98
2022-07-29T09:20:18.847Z,51.56
2022-07-29T09:22:50.035Z,51.28
2022-07-29T09:25:35.576Z,49.00
2022-07-29T09:28:12.487Z,48.97
2022-07-29T09:30:52.134Z,48.60
2022-07-29T09:33:19.652Z,48.93
2022-07-29T09:35:57.074Z,47.34
2022-07-29T09:38:24.506Z,46.74
2022-07-29T09:41:05.812Z,48.24
2022-07-29T09:43:33.334Z,46.99
2022-07-29T09:46:15.455Z,44.45
2022-07-29T09:48:42.138Z,41.95
2022-07-29T09:51:22.142Z,40.76
2022-07-29T09:53:51.312Z,42.35
2022-07-29T09:56:20.181Z,41.92
2022-07-29T09:58:46.592Z,41.78
2022-07-29T10:01:13.318Z,39.31
2022-07-29T10:03:53.544Z,39.21
2022-07-29T10:06:19.941Z,38.60
2022-07-29T10:08:47.400Z,38.07
2022-07-29T10:11:18.573Z,36.83
2022-07-29T10:13:47.791Z,37.46
2022-07-29T10:16:16.736Z,36.72
2022-07-29T10:18:47.856Z,36.85
2022-07-29T10:21:22.531Z,37.77
2022-07-29T10:24:01.768Z,38.39
2022-07-29T10:26:30.353Z,37.95
2022-07-29T10:28:56.791Z,37.63
2022-07-29T10:31:35.862Z,35.85
2022-07-29T10:34:17.927Z,36.28
2022-07-29T10:37:03.559Z,35.78
2022-07-29T10:40:43.730Z,36.45
2022-07-29T10:43:23.355Z,36.06
2022-07-29T10:45:57.718Z,35.59
2022-07-29T10:48:24.822Z,34.41
2022-07-29T10:51:05.410Z,35.30
2022-07-29T10:53:53.552Z,35.49
2022-07-29T10:56:28.399Z,34.74
2022-07-29T10:59:22.846Z,36.44
2022-07-29T11:01:53.682Z,34.85
2022-07-29T11:04:46.945Z,34.40
2022-07-29T11:07:13.702Z,34.48
2022-07-29T11:09:41.711Z,36.06
2022-07-29T11:12:39.260Z,35.52
2022-07-29T11:15:17.967Z,36.15
2022-07-29T11:18:01.177Z,35.63
2022-07-29T11:20:49.709Z,35.13
2022-07-29T11:23:20.358Z,35.55
2022-07-29T11:26:28.310Z,33.78
2022-07-29T11:28:58.516Z,35.68
2022-07-29T11:31:47.263Z,36.07
2022-07-29T11:34:46.306Z,34.17
2022-07-29T11:37:13.647Z,33.71
2022-07-29T11:39:44.473Z,33.25
2022-07-29T11:42:32.552Z,33.37
2022-07-29T11:45:42.624Z,33.29
2022-07-29T11:48:05.303Z,32.78
2022-07-29T11:50:45.711Z,32.78
2022-07-29T11:53:16.269Z,32.65
2022-07-29T11:55:51.541Z,35.06
2022-07-29T11:58:24.881Z,36.35
2022-07-29T12:00:52.569Z,35.12
2022-07-29T12:03:33.282Z,36.29
2022-07-29T12:06:04.573Z,34.30
2022-07-29T12:08:41.670Z,34.92
2022-07-29T12:11:17.594Z,34.61
2022-07-29T12:13:47.024Z,34.58
2022-07-29T12:16:15.921Z,34.04
2022-07-29T12:18:42.383Z,34.72
2022-07-29T12:21:09.310Z,33.31
2022-07-29T12:23:38.897Z,33.76
2022-07-29T12:26:07.325Z,32.37
2022-07-29T12:28:39.094Z,33.30
2022-07-29T12:31:05.820Z,33.05
2022-07-29T12:33:32.323Z,33.10
2022-07-29T12:36:14.154Z,33.69
2022-07-29T12:38:43.994Z,33.85
2022-07-29T12:41:11.219Z,36.05
2022-07-29T12:43:37.777Z,35.46
2022-07-29T12:46:15.408Z,34.88
2022-07-29T12:48:44.245Z,37.67
2022-07-29T12:51:13.282Z,38.09
2022-07-29T12:53:39.792Z,39.41
2022-07-29T12:56:20.574Z,40.00
2022-07-29T12:58:51.084Z,41.22
2022-07-29T13:01:20.419Z,42.10
2022-07-29T13:04:03.775Z,43.42
2022-07-29T13:06:35.724Z,43.54
2022-07-29T13:09:14.513Z,42.10
2022-07-29T13:11:50.348Z,40.37
2022-07-29T13:14:42.635Z,39.27
2022-07-29T13:17:13.263Z,39.10
2022-07-29T13:19:42.362Z,40.49
2022-07-29T13:22:11.064Z,39.61
2022-07-29T13:25:02.869Z,38.56
2022-07-29T13:27:32.961Z,37.98
2022-07-29T13:30:01.349Z,37.94
2022-07-29T13:32:29.963Z,39.25
2022-07-29T13:34:57.922Z,38.63
2022-07-29T13:37:24.998Z,38.37
2022-07-29T13:39:53.205Z,38.49
2022-07-29T13:42:20.407Z,38.73
2022-07-29T13:44:46.840Z,37.75
2022-07-29T13:47:13.777Z,38.09
2022-07-29T13:49:40.190Z,37.90
2022-07-29T13:52:08.242Z,38.04
2022-07-29T13:54:41.986Z,38.66
2022-07-29T13:57:09.506Z,37.99
2022-07-29T13:59:36.123Z,42.18
2022-07-29T14:02:02.802Z,41.59
2022-07-29T14:04:29.397Z,38.64
2022-07-29T14:06:55.845Z,40.93
2022-07-29T14:09:22.244Z,38.51
2022-07-29T14:11:50.594Z,40.48
2022-07-29T14:14:17.025Z,38.36
2022-07-29T14:16:50.449Z,38.08
2022-07-29T14:19:18.731Z,37.89
2022-07-29T14:21:45.754Z,39.49
2022-07-29T14:24:21.529Z,38.78
2022-07-29T14:26:49.666Z,38.35
2022-07-29T14:29:16.114Z,38.79
2022-07-29T14:31:44.033Z,38.15
2022-07-29T14:34:10.502Z,38.22
2022-07-29T14:36:36.932Z,38.99
2022-07-29T14:39:03.574Z,38.21
2022-07-29T14:41:30.513Z,37.56
2022-07-29T14:43:56.905Z,36.99
2022-07-29T14:46:23.375Z,38.36
2022-07-29T14:48:49.851Z,38.76
2022-07-29T14:51:16.517Z,39.15
2022-07-29T14:53:42.948Z,38.81
2022-07-29T14:56:35.001Z,38.11
2022-07-29T14:58:56.136Z,37.06
2022-07-29T15:01:22.666Z,36.30
2022-07-29T15:03:49.156Z,36.85
2022-07-29T15:06:15.611Z,37.93
2022-07-29T15:08:42.007Z,38.01
2022-07-29T15:11:08.759Z,37.19
2022-07-29T15:13:35.542Z,37.58
2022-07-29T15:16:02.110Z,37.21
2022-07-29T15:18:28.530Z,37.81
2022-07-29T15:20:54.957Z,37.39
2022-07-29T15:23:21.388Z,36.82
2022-07-29T15:25:47.810Z,37.76
2022-07-29T15:28:14.240Z,37.59
2022-07-29T15:30:43.508Z,38.65
2022-07-29T15:33:10.481Z,38.76
2022-07-29T15:35:40.602Z,37.94
2022-07-29T15:38:07.834Z,38.34
2022-07-29T15:40:34.380Z,39.09
2022-07-29T15:43:08.340Z,38.78
2022-07-29T15:45:40.294Z,39.11
2022-07-29T15:48:08.543Z,39.12
2022-07-29T15:50:35.490Z,39.02
2022-07-29T15:53:02.259Z,40.41
2022-07-29T15:55:28.666Z,41.95
2022-07-29T15:57:59.986Z,42.08
2022-07-29T16:00:27.091Z,40.69
2022-07-29T16:02:53.502Z,40.78
2022-07-29T16:05:19.969Z,41.46
2022-07-29T16:07:46.480Z,40.87
2022-07-29T16:10:13.008Z,41.48
2022-07-29T16:12:39.387Z,42.12
2022-07-29T16:15:09.974Z,41.90
2022-07-29T16:17:37.736Z,41.04
2022-07-29T16:20:05.877Z,42.13
2022-07-29T16:22:32.333Z,41.93
2022-07-29T16:24:58.947Z,42.39
2022-07-29T16:27:35.607Z,42.58
2022-07-29T16:30:06.892Z,42.76
2022-07-29T16:32:33.481Z,43.45
2022-07-29T16:35:02.036Z,43.13
2022-07-29T16:37:33.532Z,44.34
2022-07-29T16:40:00.089Z,42.41
2022-07-29T16:42:45.442Z,42.63
2022-07-29T16:45:13.008Z,42.03
2022-07-29T16:47:39.430Z,42.54
2022-07-29T16:50:06.349Z,43.02
2022-07-29T16:52:32.775Z,43.32
2022-07-29T16:54:59.231Z,43.63
2022-07-29T16:57:25.718Z,43.93
2022-07-29T16:59:52.214Z,44.98
2022-07-29T17:02:18.991Z,43.36
2022-07-29T17:04:45.516Z,42.71
2022-07-29T17:07:12.019Z,45.12
2022-07-29T17:09:38.503Z,43.46
2022-07-29T17:12:05.410Z,42.92
2022-07-29T17:14:32.104Z,42.88
2022-07-29T17:17:02.151Z,43.05
2022-07-29T17:19:32.085Z,44.72
2022-07-29T17:22:08.452Z,42.94
2022-07-29T17:24:35.677Z,43.85
2022-07-29T17:27:02.128Z,45.76
2022-07-29T17:29:28.619Z,43.14
2022-07-29T17:31:55.031Z,42.78
2022-07-29T17:34:21.483Z,44.49
2022-07-29T17:36:48.224Z,44.77
2022-07-29T17:39:14.634Z,44.47
2022-07-29T17:41:41.114Z,45.24
2022-07-29T17:44:09.363Z,44.69
2022-07-29T17:46:36.489Z,45.26
2022-07-29T17:49:03.200Z,44.46
2022-07-29T17:51:29.723Z,44.30
2022-07-29T17:53:56.139Z,44.96
2022-07-29T17:56:22.569Z,46.18
2022-07-29T17:58:49.005Z,46.74
2022-07-29T18:01:15.624Z,45.45
2022-07-29T18:03:42.737Z,47.34
2022-07-29T18:06:10.512Z,47.20
2022-07-29T18:08:38.892Z,47.13
2022-07-29T18:11:06.349Z,48.25
2022-07-29T18:13:33.192Z,48.50
2022-07-29T18:16:00.715Z,49.24
2022-07-29T18:18:27.749Z,48.34
2022-07-29T18:20:54.347Z,47.96
2022-07-29T18:23:21.215Z,48.85
2022-07-29T18:25:47.610Z,47.34
2022-07-29T18:28:14.265Z,48.69
2022-07-29T18:30:41.445Z,48.07
2022-07-29T18:33:22.824Z,49.11
2022-07-29T18:35:51.252Z,50.49
2022-07-29T18:38:18.130Z,49.74
2022-07-29T18:40:45.680Z,50.02
2022-07-29T18:43:13.202Z,50.17
2022-07-29T18:45:39.958Z,50.49
2022-07-29T18:48:08.363Z,50.73
2022-07-29T18:50:40.381Z,50.92
2022-07-29T18:53:06.870Z,50.77
2022-07-29T18:55:33.257Z,50.80
2022-07-29T18:57:59.689Z,50.52
2022-07-29T19:00:26.476Z,50.68
2022-07-29T19:05:20.589Z,50.08
2022-07-29T19:07:46.982Z,50.21
2022-07-29T19:10:13.627Z,50.43
2022-07-29T19:12:40.054Z,50.76
2022-07-29T19:15:08.048Z,51.09
2022-07-29T19:17:34.540Z,50.85
2022-07-29T19:20:00.994Z,50.98
2022-07-29T19:22:27.766Z,51.09
2022-07-29T19:24:54.174Z,51.01
2022-07-29T19:27:20.649Z,51.28
2022-07-29T19:29:47.036Z,51.18
2022-07-29T19:32:14.495Z,50.68
2022-07-29T19:35:10.052Z,50.95
2022-07-29T19:37:37.305Z,50.90
2022-07-29T19:40:05.087Z,50.92
2022-07-29T19:42:31.547Z,51.23
2022-07-29T19:44:57.998Z,51.40
2022-07-29T19:47:24.456Z,52.47
2022-07-29T19:49:50.822Z,53.02
2022-07-29T19:52:17.283Z,52.33
2022-07-29T19:54:43.708Z,52.72
2022-07-29T19:57:10.124Z,52.82
2022-07-29T19:59:37.141Z,52.31
2022-07-29T20:02:03.702Z,53.11
2022-07-29T20:04:30.555Z,53.40
2022-07-29T20:07:01.356Z,53.90
2022-07-29T20:09:28.765Z,54.10
2022-07-29T20:11:55.186Z,54.14
2022-07-29T20:14:21.722Z,54.29
2022-07-29T20:16:48.806Z,54.91
2022-07-29T20:19:15.423Z,54.82
2022-07-29T20:21:42.083Z,55.33
2022-07-29T20:24:10.277Z,55.41
2022-07-29T20:26:36.858Z,55.65
2022-07-29T20:29:05.165Z,55.87
2022-07-29T20:31:32.413Z,55.63
2022-07-29T20:34:00.037Z,55.29
2022-07-29T20:36:26.880Z,56.06
2022-07-29T20:38:53.700Z,56.47
2022-07-29T20:41:20.233Z,57.26
2022-07-29T20:43:49.723Z,57.44
2022-07-29T20:46:16.228Z,57.62
2022-07-29T20:48:42.762Z,58.10
2022-07-29T20:51:09.259Z,58.42
2022-07-29T20:53:38.512Z,57.96
2022-07-29T20:56:05.561Z,58.21
2022-07-29T20:58:33.964Z,57.86
2022-07-29T21:01:01.203Z,58.50
2022-07-29T21:03:27.585Z,58.55
2022-07-29T21:05:54.041Z,58.92
2022-07-29T21:08:20.466Z,59.05
2022-07-29T21:10:47.047Z,59.31
2022-07-29T21:13:14.334Z,59.91
2022-07-29T21:15:46.265Z,59.51
2022-07-29T21:18:30.535Z,60.39
2022-07-29T21:21:00.675Z,60.62
2022-07-29T21:23:27.785Z,60.52
2022-07-29T21:25:54.576Z,60.30
2022-07-29T21:28:26.780Z,60.68
2022-07-29T21:30:54.106Z,60.11
2022-07-29T21:33:20.553Z,61.10
2022-07-29T21:36:10.550Z,60.79
2022-07-29T21:38:34.155Z,60.76
2022-07-29T21:41:01.076Z,61.17
2022-07-29T21:43:28.558Z,60.94
2022-07-29T21:45:56.223Z,61.97
2022-07-29T21:48:23.729Z,61.46
2022-07-29T21:50:51.030Z,62.42
2022-07-29T21:53:17.923Z,62.79
2022-07-29T21:55:50.596Z,62.82
2022-07-29T21:58:18.047Z,62.58
2022-07-29T22:00:45.205Z,63.09
2022-07-29T22:03:11.704Z,64.48
2022-07-29T22:05:38.201Z,64.06
2022-07-29T22:08:05.088Z,63.80
2022-07-29T22:10:31.871Z,64.71
2022-07-29T22:12:59.866Z,65.11
2022-07-29T22:15:27.450Z,65.43
2022-07-29T22:17:54.215Z,65.39
2022-07-29T22:20:21.235Z,65.48
2022-07-29T22:22:48.126Z,66.43
2022-07-29T22:25:15.072Z,65.88
2022-07-29T22:27:41.476Z,65.69
2022-07-29T22:30:08.343Z,66.50
2022-07-29T22:32:35.156Z,67.41
2022-07-29T22:35:01.555Z,67.17
2022-07-29T22:37:28.335Z,67.29
2022-07-29T22:39:54.770Z,67.53
2022-07-29T22:42:21.334Z,67.87
2022-07-29T22:44:47.766Z,68.31
2022-07-29T22:47:14.206Z,68.93
2022-07-29T22:49:40.656Z,68.71
2022-07-29T22:52:07.218Z,68.79
2022-07-29T22:54:33.645Z,70.13
2022-07-29T22:57:00.961Z,69.25
2022-07-29T22:59:27.581Z,69.54
2022-07-29T23:01:54.462Z,69.30
2022-07-29T23:04:23.638Z,69.65
2022-07-29T23:06:51.082Z,70.97
2022-07-29T23:09:18.913Z,72.48
2022-07-29T23:11:47.081Z,71.03
2022-07-29T23:14:13.570Z,71.55
2022-07-29T23:16:40.045Z,72.19
2022-07-29T23:19:06.443Z,71.44
2022-07-29T23:21:32.952Z,72.41
2022-07-29T23:23:59.332Z,72.13
2022-07-29T23:26:25.831Z,72.27
2022-07-29T23:28:52.226Z,71.71
2022-07-29T23:31:18.899Z,71.96
2022-07-29T23:33:45.362Z,71.94
2022-07-29T23:36:11.794Z,72.16
2022-07-29T23:38:41.105Z,73.07
2022-07-29T23:41:09.588Z,72.98
2022-07-29T23:43:37.157Z,73.22
2022-07-29T23:46:03.690Z,73.69
2022-07-29T23:48:31.861Z,73.42
2022-07-29T23:51:00.332Z,72.84
2022-07-29T23:53:27.582Z,75.15
2022-07-29T23:55:54.001Z,73.16
2022-07-29T23:58:20.442Z,73.91
